sensor_id;sensor_type;location;lat;lon;timestamp;pressure;altitude;pressure_sealevel;temperature;humidity
20971;BME280;10644;48.834;10.088;2023-03-04T00:02:15;97144.56;;;7.40;47.48
20971;BME280;10644;48.834;10.088;2023-03-04T00:04:49;97140.75;;;7.27;47.52
20971;BME280;10644;48.834;10.088;2023-03-04T00:07:22;97142.88;;;7.15;47.53
20971;BME280;10644;48.834;10.088;2023-03-04T00:10:03;97146.44;;;6.83;48.55
20971;BME280;10644;48.834;10.088;2023-03-04T00:12:33;97147.94;;;6.90;48.43
20971;BME280;10644;48.834;10.088;2023-03-04T00:15:05;97132.03;;;6.84;48.27
20971;BME280;10644;48.834;10.088;2023-03-04T00:17:30;97132.56;;;6.93;48.26
20971;BME280;10644;48.834;10.088;2023-03-04T00:20:04;97131.94;;;7.11;48.03
20971;BME280;10644;48.834;10.088;2023-03-04T00:22:36;97130.88;;;7.18;47.85
20971;BME280;10644;48.834;10.088;2023-03-04T00:25:05;97131.44;;;7.26;47.74
20971;BME280;10644;48.834;10.088;2023-03-04T00:27:42;97125.47;;;7.27;47.41
20971;BME280;10644;48.834;10.088;2023-03-04T00:30:18;97139.75;;;7.31;47.25
20971;BME280;10644;48.834;10.088;2023-03-04T00:32:43;97135.66;;;7.27;47.51
20971;BME280;10644;48.834;10.088;2023-03-04T00:35:09;97133.00;;;7.30;47.38
20971;BME280;10644;48.834;10.088;2023-03-04T00:37:54;97132.69;;;7.39;46.99
20971;BME280;10644;48.834;10.088;2023-03-04T00:40:36;97130.28;;;7.35;46.53
20971;BME280;10644;48.834;10.088;2023-03-04T00:43:02;97130.63;;;7.26;47.32
20971;BME280;10644;48.834;10.088;2023-03-04T00:45:38;97129.22;;;7.17;47.20
20971;BME280;10644;48.834;10.088;2023-03-04T00:48:11;97126.47;;;7.23;47.24
20971;BME280;10644;48.834;10.088;2023-03-04T00:50:38;97127.22;;;7.25;47.25
20971;BME280;10644;48.834;10.088;2023-03-04T00:53:14;97119.59;;;7.25;47.21
20971;BME280;10644;48.834;10.088;2023-03-04T00:55:40;97126.41;;;7.25;47.24
20971;BME280;10644;48.834;10.088;2023-03-04T00:58:12;97121.47;;;7.20;47.10
20971;BME280;10644;48.834;10.088;2023-03-04T01:00:46;97128.59;;;6.85;47.32
20971;BME280;10644;48.834;10.088;2023-03-04T01:03:12;97118.31;;;6.88;47.43
20971;BME280;10644;48.834;10.088;2023-03-04T01:05:42;97111.47;;;6.90;47.39
20971;BME280;10644;48.834;10.088;2023-03-04T01:08:14;97116.47;;;6.93;47.93
20971;BME280;10644;48.834;10.088;2023-03-04T01:10:41;97109.56;;;6.96;47.82
20971;BME280;10644;48.834;10.088;2023-03-04T01:13:20;97101.81;;;6.99;47.06
20971;BME280;10644;48.834;10.088;2023-03-04T01:16:01;97105.44;;;6.92;46.94
20971;BME280;10644;48.834;10.088;2023-03-04T01:18:27;97101.19;;;6.93;47.11
20971;BME280;10644;48.834;10.088;2023-03-04T01:20:54;97098.91;;;6.85;47.22
20971;BME280;10644;48.834;10.088;2023-03-04T01:23:27;97095.53;;;6.83;47.26
20971;BME280;10644;48.834;10.088;2023-03-04T01:25:53;97104.50;;;6.43;47.94
20971;BME280;10644;48.834;10.088;2023-03-04T01:28:18;97096.47;;;6.29;48.08
20971;BME280;10644;48.834;10.088;2023-03-04T01:30:51;97098.63;;;6.41;47.90
20971;BME280;10644;48.834;10.088;2023-03-04T01:33:25;97094.81;;;6.28;48.08
20971;BME280;10644;48.834;10.088;2023-03-04T01:35:54;97090.38;;;6.34;48.42
20971;BME280;10644;48.834;10.088;2023-03-04T01:38:24;97094.09;;;6.50;48.39
20971;BME280;10644;48.834;10.088;2023-03-04T01:40:53;97084.16;;;6.43;47.98
20971;BME280;10644;48.834;10.088;2023-03-04T01:43:23;97096.03;;;6.42;48.37
20971;BME280;10644;48.834;10.088;2023-03-04T01:45:52;97087.78;;;6.36;48.40
20971;BME280;10644;48.834;10.088;2023-03-04T01:48:28;97088.72;;;6.33;48.25
20971;BME280;10644;48.834;10.088;2023-03-04T01:50:57;97095.16;;;6.43;48.12
20971;BME280;10644;48.834;10.088;2023-03-04T01:53:31;97096.72;;;6.47;48.06
20971;BME280;10644;48.834;10.088;2023-03-04T01:56:11;97085.38;;;6.31;47.73
20971;BME280;10644;48.834;10.088;2023-03-04T01:58:42;97088.47;;;6.13;48.21
20971;BME280;10644;48.834;10.088;2023-03-04T02:01:11;97089.25;;;6.15;48.59
20971;BME280;10644;48.834;10.088;2023-03-04T02:03:38;97087.19;;;6.28;48.46
20971;BME280;10644;48.834;10.088;2023-03-04T02:06:05;97089.34;;;6.40;48.24
20971;BME280;10644;48.834;10.088;2023-03-04T02:08:31;97084.91;;;6.46;47.97
20971;BME280;10644;48.834;10.088;2023-03-04T02:11:04;97091.59;;;6.49;47.54
20971;BME280;10644;48.834;10.088;2023-03-04T02:13:37;97089.06;;;6.49;47.99
20971;BME280;10644;48.834;10.088;2023-03-04T02:16:03;97094.09;;;6.50;47.18
20971;BME280;10644;48.834;10.088;2023-03-04T02:18:34;97094.16;;;6.49;47.34
20971;BME280;10644;48.834;10.088;2023-03-04T02:21:24;97094.16;;;6.49;47.32
20971;BME280;10644;48.834;10.088;2023-03-04T02:26:57;97087.41;;;6.48;47.73
20971;BME280;10644;48.834;10.088;2023-03-04T02:29:47;97088.59;;;6.36;47.26
20971;BME280;10644;48.834;10.088;2023-03-04T02:32:23;97082.06;;;6.29;47.34
20971;BME280;10644;48.834;10.088;2023-03-04T02:34:49;97088.91;;;6.27;47.58
20971;BME280;10644;48.834;10.088;2023-03-04T02:37:16;97092.50;;;6.20;47.90
20971;BME280;10644;48.834;10.088;2023-03-04T02:40:02;97098.47;;;6.19;47.53
20971;BME280;10644;48.834;10.088;2023-03-04T02:42:30;97081.59;;;6.17;47.89
20971;BME280;10644;48.834;10.088;2023-03-04T02:48:02;97078.88;;;6.21;48.25
20971;BME280;10644;48.834;10.088;2023-03-04T02:50:45;97093.88;;;6.30;47.92
20971;BME280;10644;48.834;10.088;2023-03-04T02:53:12;97089.50;;;6.35;48.09
20971;BME280;10644;48.834;10.088;2023-03-04T02:55:37;97086.94;;;6.35;47.64
20971;BME280;10644;48.834;10.088;2023-03-04T02:58:05;97089.38;;;6.38;47.80
20971;BME280;10644;48.834;10.088;2023-03-04T03:00:30;97083.72;;;6.30;47.79
20971;BME280;10644;48.834;10.088;2023-03-04T03:02:57;97082.53;;;5.85;48.27
20971;BME280;10644;48.834;10.088;2023-03-04T03:05:33;97079.16;;;5.85;47.99
20971;BME280;10644;48.834;10.088;2023-03-04T03:08:00;97082.00;;;5.74;48.33
20971;BME280;10644;48.834;10.088;2023-03-04T03:10:34;97079.41;;;5.76;48.16
20971;BME280;10644;48.834;10.088;2023-03-04T03:13:06;97083.66;;;5.75;48.55
20971;BME280;10644;48.834;10.088;2023-03-04T03:15:31;97076.84;;;5.77;48.72
20971;BME280;10644;48.834;10.088;2023-03-04T03:18:03;97086.00;;;5.83;48.06
20971;BME280;10644;48.834;10.088;2023-03-04T03:20:41;97080.16;;;5.81;48.33
20971;BME280;10644;48.834;10.088;2023-03-04T03:23:18;97091.75;;;5.89;48.39
20971;BME280;10644;48.834;10.088;2023-03-04T03:25:47;97089.91;;;5.94;48.25
20971;BME280;10644;48.834;10.088;2023-03-04T03:28:18;97095.63;;;6.01;48.04
20971;BME280;10644;48.834;10.088;2023-03-04T03:31:15;97099.78;;;6.03;47.91
20971;BME280;10644;48.834;10.088;2023-03-04T03:33:45;97084.72;;;5.97;48.10
20971;BME280;10644;48.834;10.088;2023-03-04T03:36:31;97095.94;;;5.90;48.03
20971;BME280;10644;48.834;10.088;2023-03-04T03:38:57;97076.03;;;5.75;47.97
20971;BME280;10644;48.834;10.088;2023-03-04T03:41:22;97086.25;;;5.74;48.25
20971;BME280;10644;48.834;10.088;2023-03-04T03:44:16;97091.88;;;5.85;47.91
20971;BME280;10644;48.834;10.088;2023-03-04T03:46:57;97090.09;;;5.88;48.23
20971;BME280;10644;48.834;10.088;2023-03-04T03:49:33;97080.88;;;5.84;47.84
20971;BME280;10644;48.834;10.088;2023-03-04T03:52:09;97082.75;;;5.76;47.84
20971;BME280;10644;48.834;10.088;2023-03-04T03:54:35;97071.81;;;5.74;48.11
20971;BME280;10644;48.834;10.088;2023-03-04T03:57:19;97081.03;;;5.78;47.45
20971;BME280;10644;48.834;10.088;2023-03-04T03:59:44;97080.09;;;5.82;47.99
20971;BME280;10644;48.834;10.088;2023-03-04T04:02:30;97078.25;;;5.87;47.56
20971;BME280;10644;48.834;10.088;2023-03-04T04:05:08;97074.84;;;5.88;47.47
20971;BME280;10644;48.834;10.088;2023-03-04T04:07:37;97084.16;;;5.88;47.05
20971;BME280;10644;48.834;10.088;2023-03-04T04:10:04;97079.22;;;5.83;47.59
20971;BME280;10644;48.834;10.088;2023-03-04T04:12:37;97076.84;;;5.77;47.28
20971;BME280;10644;48.834;10.088;2023-03-04T04:15:06;97089.25;;;5.57;47.96
20971;BME280;10644;48.834;10.088;2023-03-04T04:17:38;97078.03;;;5.35;48.40
20971;BME280;10644;48.834;10.088;2023-03-04T04:20:07;97076.19;;;5.40;48.28
20971;BME280;10644;48.834;10.088;2023-03-04T04:22:34;97083.69;;;5.45;48.43
20971;BME280;10644;48.834;10.088;2023-03-04T04:25:13;97079.78;;;5.33;48.32
20971;BME280;10644;48.834;10.088;2023-03-04T04:27:48;97079.31;;;5.19;48.64
20971;BME280;10644;48.834;10.088;2023-03-04T04:30:13;97079.75;;;5.03;49.11
20971;BME280;10644;48.834;10.088;2023-03-04T04:32:40;97082.97;;;5.09;49.14
20971;BME280;10644;48.834;10.088;2023-03-04T04:35:22;97085.34;;;5.15;48.93
20971;BME280;10644;48.834;10.088;2023-03-04T04:38:06;97087.72;;;5.21;48.58
20971;BME280;10644;48.834;10.088;2023-03-04T04:40:42;97080.00;;;5.24;48.84
20971;BME280;10644;48.834;10.088;2023-03-04T04:43:31;97078.91;;;5.34;48.47
20971;BME280;10644;48.834;10.088;2023-03-04T04:45:58;97086.53;;;5.34;48.51
20971;BME280;10644;48.834;10.088;2023-03-04T04:48:24;97075.81;;;5.23;48.39
20971;BME280;10644;48.834;10.088;2023-03-04T04:50:53;97078.91;;;5.02;48.84
20971;BME280;10644;48.834;10.088;2023-03-04T04:53:19;97073.91;;;4.67;49.47
20971;BME280;10644;48.834;10.088;2023-03-04T04:55:45;97076.38;;;4.70;49.24
20971;BME280;10644;48.834;10.088;2023-03-04T04:58:16;97087.03;;;4.49;50.20
20971;BME280;10644;48.834;10.088;2023-03-04T05:00:42;97090.88;;;4.30;50.64
20971;BME280;10644;48.834;10.088;2023-03-04T05:03:08;97084.84;;;4.36;50.25
20971;BME280;10644;48.834;10.088;2023-03-04T05:05:36;97095.38;;;4.54;50.44
20971;BME280;10644;48.834;10.088;2023-03-04T05:08:14;97090.75;;;4.70;49.46
20971;BME280;10644;48.834;10.088;2023-03-04T05:10:54;97090.41;;;4.83;49.25
20971;BME280;10644;48.834;10.088;2023-03-04T05:13:20;97085.97;;;4.91;48.95
20971;BME280;10644;48.834;10.088;2023-03-04T05:15:55;97092.47;;;5.01;48.90
20971;BME280;10644;48.834;10.088;2023-03-04T05:18:29;97092.47;;;5.01;48.61
20971;BME280;10644;48.834;10.088;2023-03-04T05:21:02;97094.84;;;5.07;49.14
20971;BME280;10644;48.834;10.088;2023-03-04T05:23:40;97091.38;;;5.11;48.60
20971;BME280;10644;48.834;10.088;2023-03-04T05:26:15;97093.75;;;5.17;49.09
20971;BME280;10644;48.834;10.088;2023-03-04T05:28:48;97091.88;;;4.92;49.33
20971;BME280;10644;48.834;10.088;2023-03-04T05:34:33;97097.56;;;5.01;49.35
20971;BME280;10644;48.834;10.088;2023-03-04T05:37:14;97098.41;;;5.02;49.13
20971;BME280;10644;48.834;10.088;2023-03-04T05:39:44;97101.66;;;5.07;49.37
20971;BME280;10644;48.834;10.088;2023-03-04T05:42:09;97095.75;;;5.06;48.84
20971;BME280;10644;48.834;10.088;2023-03-04T05:44:40;97101.66;;;4.73;50.10
20971;BME280;10644;48.834;10.088;2023-03-04T05:47:23;97110.19;;;4.69;49.63
20971;BME280;10644;48.834;10.088;2023-03-04T05:49:50;97116.75;;;4.78;49.79
20971;BME280;10644;48.834;10.088;2023-03-04T05:52:25;97105.63;;;4.83;49.30
20971;BME280;10644;48.834;10.088;2023-03-04T05:54:51;97101.34;;;4.85;49.33
20971;BME280;10644;48.834;10.088;2023-03-04T05:57:30;97106.28;;;4.91;49.25
20971;BME280;10644;48.834;10.088;2023-03-04T06:00:06;97108.66;;;4.97;48.82
20971;BME280;10644;48.834;10.088;2023-03-04T06:02:42;97103.66;;;4.94;48.90
20971;BME280;10644;48.834;10.088;2023-03-04T06:05:15;97106.97;;;4.98;49.17
20971;BME280;10644;48.834;10.088;2023-03-04T06:07:43;97106.97;;;4.98;49.26
20971;BME280;10644;48.834;10.088;2023-03-04T06:10:11;97110.34;;;4.98;49.48
20971;BME280;10644;48.834;10.088;2023-03-04T06:13:12;97116.34;;;4.94;49.70
20971;BME280;10644;48.834;10.088;2023-03-04T06:15:43;97117.28;;;4.90;50.26
20971;BME280;10644;48.834;10.088;2023-03-04T06:18:18;97121.66;;;4.85;50.57
20971;BME280;10644;48.834;10.088;2023-03-04T06:20:55;97123.84;;;4.65;52.04
20971;BME280;10644;48.834;10.088;2023-03-04T06:23:25;97126.31;;;4.68;52.51
20971;BME280;10644;48.834;10.088;2023-03-04T06:25:53;97124.59;;;4.69;52.91
20971;BME280;10644;48.834;10.088;2023-03-04T06:28:20;97123.59;;;4.74;52.85
20971;BME280;10644;48.834;10.088;2023-03-04T06:30:45;97134.47;;;4.81;53.03
20971;BME280;10644;48.834;10.088;2023-03-04T06:33:19;97140.38;;;4.81;53.01
20971;BME280;10644;48.834;10.088;2023-03-04T06:35:56;97140.47;;;4.77;53.22
20971;BME280;10644;48.834;10.088;2023-03-04T06:38:22;97143.75;;;4.80;53.86
20971;BME280;10644;48.834;10.088;2023-03-04T06:40:49;97145.34;;;4.84;53.86
20971;BME280;10644;48.834;10.088;2023-03-04T06:43:28;97152.09;;;4.85;53.49
20971;BME280;10644;48.834;10.088;2023-03-04T06:45:57;97153.69;;;4.89;53.72
20971;BME280;10644;48.834;10.088;2023-03-04T06:48:28;97148.91;;;4.77;55.11
20971;BME280;10644;48.834;10.088;2023-03-04T06:51:15;97154.59;;;4.87;54.03
20971;BME280;10644;48.834;10.088;2023-03-04T06:53:46;97152.09;;;4.85;54.72
20971;BME280;10644;48.834;10.088;2023-03-04T06:56:13;97153.00;;;4.83;55.45
20971;BME280;10644;48.834;10.088;2023-03-04T06:58:41;97159.19;;;4.73;56.50
20971;BME280;10644;48.834;10.088;2023-03-04T07:01:27;97172.78;;;4.70;56.29
20971;BME280;10644;48.834;10.088;2023-03-04T07:04:22;97171.59;;;4.48;57.16
20971;BME280;10644;48.834;10.088;2023-03-04T07:06:54;97180.66;;;4.20;59.09
20971;BME280;10644;48.834;10.088;2023-03-04T07:09:29;97191.25;;;3.99;59.07
20971;BME280;10644;48.834;10.088;2023-03-04T07:12:02;97180.22;;;4.02;58.73
20971;BME280;10644;48.834;10.088;2023-03-04T07:14:27;97180.44;;;3.91;59.36
20971;BME280;10644;48.834;10.088;2023-03-04T07:16:54;97190.47;;;3.96;59.08
20971;BME280;10644;48.834;10.088;2023-03-04T07:19:23;97181.81;;;4.06;58.61
20971;BME280;10644;48.834;10.088;2023-03-04T07:21:49;97177.38;;;4.15;59.51
20971;BME280;10644;48.834;10.088;2023-03-04T07:24:14;97180.31;;;4.35;58.33
20971;BME280;10644;48.834;10.088;2023-03-04T07:26:48;97193.53;;;4.49;57.14
20971;BME280;10644;48.834;10.088;2023-03-04T07:29:38;97197.84;;;4.46;57.05
20971;BME280;10644;48.834;10.088;2023-03-04T07:32:08;97196.03;;;4.51;57.62
20971;BME280;10644;48.834;10.088;2023-03-04T07:34:48;97212.34;;;4.39;57.88
20971;BME280;10644;48.834;10.088;2023-03-04T07:37:30;97218.09;;;4.08;59.31
20971;BME280;10644;48.834;10.088;2023-03-04T07:39:59;97216.63;;;3.96;59.58
20971;BME280;10644;48.834;10.088;2023-03-04T07:42:41;97212.19;;;4.07;58.61
20971;BME280;10644;48.834;10.088;2023-03-04T07:45:17;97214.84;;;4.01;59.64
20971;BME280;10644;48.834;10.088;2023-03-04T07:47:42;97216.81;;;3.87;59.78
20971;BME280;10644;48.834;10.088;2023-03-04T07:50:09;97214.22;;;3.90;60.34
20971;BME280;10644;48.834;10.088;2023-03-04T07:52:46;97212.09;;;3.69;60.63
20971;BME280;10644;48.834;10.088;2023-03-04T07:55:26;97218.47;;;3.90;59.29
20971;BME280;10644;48.834;10.088;2023-03-04T07:57:56;97213.88;;;3.64;61.03
20971;BME280;10644;48.834;10.088;2023-03-04T08:00:47;97216.56;;;3.55;61.50
20971;BME280;10644;48.834;10.088;2023-03-04T08:03:12;97222.53;;;3.51;61.77
20971;BME280;10644;48.834;10.088;2023-03-04T08:05:40;97222.66;;;3.45;62.35
20971;BME280;10644;48.834;10.088;2023-03-04T08:08:06;97227.59;;;3.51;61.89
20971;BME280;10644;48.834;10.088;2023-03-04T08:10:34;97232.41;;;3.66;61.27
20971;BME280;10644;48.834;10.088;2023-03-04T08:13:26;97235.16;;;3.56;62.16
20971;BME280;10644;48.834;10.088;2023-03-04T08:16:00;97236.72;;;3.61;61.76
20971;BME280;10644;48.834;10.088;2023-03-04T08:18:27;97231.28;;;3.81;61.11
20971;BME280;10644;48.834;10.088;2023-03-04T08:20:59;97229.09;;;3.64;61.67
20971;BME280;10644;48.834;10.088;2023-03-04T08:23:24;97238.44;;;3.59;61.94
20971;BME280;10644;48.834;10.088;2023-03-04T08:25:50;97235.91;;;3.59;62.15
20971;BME280;10644;48.834;10.088;2023-03-04T08:28:15;97227.41;;;3.63;62.35
20971;BME280;10644;48.834;10.088;2023-03-04T08:30:44;97228.56;;;3.47;62.72
20971;BME280;10644;48.834;10.088;2023-03-04T08:33:19;97230.44;;;3.35;62.91
20971;BME280;10644;48.834;10.088;2023-03-04T08:35:45;97229.44;;;3.43;62.41
20971;BME280;10644;48.834;10.088;2023-03-04T08:38:12;97230.97;;;3.53;62.04
20971;BME280;10644;48.834;10.088;2023-03-04T08:40:38;97241.66;;;3.67;61.67
20971;BME280;10644;48.834;10.088;2023-03-04T08:43:03;97236.03;;;3.53;62.77
20971;BME280;10644;48.834;10.088;2023-03-04T08:45:33;97242.78;;;3.51;62.27
20971;BME280;10644;48.834;10.088;2023-03-04T08:47:59;97243.00;;;3.41;62.65
20971;BME280;10644;48.834;10.088;2023-03-04T08:50:24;97238.81;;;3.40;62.07
20971;BME280;10644;48.834;10.088;2023-03-04T08:52:52;97251.44;;;3.41;62.17
20971;BME280;10644;48.834;10.088;2023-03-04T08:55:17;97252.25;;;3.43;61.68
20971;BME280;10644;48.834;10.088;2023-03-04T08:57:44;97252.09;;;3.51;61.73
20971;BME280;10644;48.834;10.088;2023-03-04T09:00:12;97246.31;;;3.44;62.29
20971;BME280;10644;48.834;10.088;2023-03-04T09:02:51;97250.94;;;3.68;62.10
20971;BME280;10644;48.834;10.088;2023-03-04T09:05:16;97244.03;;;3.76;61.36
20971;BME280;10644;48.834;10.088;2023-03-04T09:07:44;97242.19;;;3.84;60.96
20971;BME280;10644;48.834;10.088;2023-03-04T09:10:15;97242.63;;;4.06;60.11
20971;BME280;10644;48.834;10.088;2023-03-04T09:12:52;97247.97;;;3.92;61.04
20971;BME280;10644;48.834;10.088;2023-03-04T09:15:18;97237.88;;;3.89;61.17
20971;BME280;10644;48.834;10.088;2023-03-04T09:17:46;97233.63;;;3.91;60.90
20971;BME280;10644;48.834;10.088;2023-03-04T09:20:12;97239.50;;;3.93;61.14
20971;BME280;10644;48.834;10.088;2023-03-04T09:22:41;97244.50;;;3.96;60.91
20971;BME280;10644;48.834;10.088;2023-03-04T09:25:10;97231.53;;;4.11;60.98
20971;BME280;10644;48.834;10.088;2023-03-04T09:27:42;97234.56;;;4.28;60.18
20971;BME280;10644;48.834;10.088;2023-03-04T09:30:10;97238.47;;;4.43;59.87
20971;BME280;10644;48.834;10.088;2023-03-04T09:32:39;97228.34;;;4.41;60.33
20971;BME280;10644;48.834;10.088;2023-03-04T09:35:06;97238.41;;;4.46;59.74
20971;BME280;10644;48.834;10.088;2023-03-04T09:37:31;97237.69;;;4.39;60.29
20971;BME280;10644;48.834;10.088;2023-03-04T09:39:57;97235.47;;;4.24;60.70
20971;BME280;10644;48.834;10.088;2023-03-04T09:42:42;97243.66;;;4.37;60.24
20971;BME280;10644;48.834;10.088;2023-03-04T09:45:12;97233.31;;;4.47;61.11
20971;BME280;10644;48.834;10.088;2023-03-04T09:47:42;97236.47;;;4.57;60.40
20971;BME280;10644;48.834;10.088;2023-03-04T09:50:09;97236.78;;;4.81;59.65
20971;BME280;10644;48.834;10.088;2023-03-04T09:55:39;97238.59;;;4.75;59.64
20971;BME280;10644;48.834;10.088;2023-03-04T09:58:33;97248.38;;;4.91;59.07
20971;BME280;10644;48.834;10.088;2023-03-04T10:01:33;97245.47;;;4.71;59.55
20971;BME280;10644;48.834;10.088;2023-03-04T10:04:09;97235.06;;;4.82;59.59
20971;BME280;10644;48.834;10.088;2023-03-04T10:06:38;97238.78;;;4.67;59.96
20971;BME280;10644;48.834;10.088;2023-03-04T10:09:11;97232.88;;;4.67;60.41
20971;BME280;10644;48.834;10.088;2023-03-04T10:15:04;97230.06;;;4.41;61.04
20971;BME280;10644;48.834;10.088;2023-03-04T10:17:35;97235.63;;;4.56;60.92
20971;BME280;10644;48.834;10.088;2023-03-04T10:23:09;97227.38;;;4.48;61.15
20971;BME280;10644;48.834;10.088;2023-03-04T10:25:38;97225.00;;;4.41;61.62
20971;BME280;10644;48.834;10.088;2023-03-04T10:28:16;97225.72;;;4.47;61.39
20971;BME280;10644;48.834;10.088;2023-03-04T10:33:30;97225.94;;;4.35;61.83
20971;BME280;10644;48.834;10.088;2023-03-04T10:38:36;97232.88;;;4.27;62.08
20971;BME280;10644;48.834;10.088;2023-03-04T10:41:16;97234.28;;;4.40;61.85
20971;BME280;10644;48.834;10.088;2023-03-04T10:44:16;97234.16;;;4.46;61.93
20971;BME280;10644;48.834;10.088;2023-03-04T10:47:03;97235.97;;;4.41;61.87
20971;BME280;10644;48.834;10.088;2023-03-04T10:49:33;97230.88;;;4.41;61.98
20971;BME280;10644;48.834;10.088;2023-03-04T10:52:45;97227.44;;;4.44;61.89
20971;BME280;10644;48.834;10.088;2023-03-04T10:57:50;97222.03;;;4.60;61.33
20971;BME280;10644;48.834;10.088;2023-03-04T11:01:01;97216.69;;;4.72;61.25
20971;BME280;10644;48.834;10.088;2023-03-04T11:06:21;97209.00;;;4.75;61.25
20971;BME280;10644;48.834;10.088;2023-03-04T11:08:59;97213.06;;;4.82;61.24
20971;BME280;10644;48.834;10.088;2023-03-04T11:11:44;97208.75;;;4.86;61.09
20971;BME280;10644;48.834;10.088;2023-03-04T11:14:27;97212.31;;;4.79;60.76
20971;BME280;10644;48.834;10.088;2023-03-04T11:20:11;97198.44;;;4.93;60.82
20971;BME280;10644;48.834;10.088;2023-03-04T11:22:38;97198.81;;;4.77;61.38
20971;BME280;10644;48.834;10.088;2023-03-04T11:25:07;97194.34;;;4.86;60.57
20971;BME280;10644;48.834;10.088;2023-03-04T11:27:47;97197.56;;;4.94;60.74
20971;BME280;10644;48.834;10.088;2023-03-04T11:30:18;97204.88;;;5.06;61.51
20971;BME280;10644;48.834;10.088;2023-03-04T11:32:50;97183.84;;;5.01;61.12
20971;BME280;10644;48.834;10.088;2023-03-04T11:38:07;97202.41;;;5.03;61.25
20971;BME280;10644;48.834;10.088;2023-03-04T11:40:40;97193.69;;;5.13;60.81
20971;BME280;10644;48.834;10.088;2023-03-04T11:43:25;97183.63;;;5.10;61.07
20971;BME280;10644;48.834;10.088;2023-03-04T11:51:48;97184.81;;;5.29;59.96
20971;BME280;10644;48.834;10.088;2023-03-04T11:54:46;97175.72;;;5.22;60.41
20971;BME280;10644;48.834;10.088;2023-03-04T12:00:37;97169.91;;;5.17;60.52
20971;BME280;10644;48.834;10.088;2023-03-04T12:03:43;97168.00;;;5.25;60.53
20971;BME280;10644;48.834;10.088;2023-03-04T12:06:31;97157.94;;;5.22;60.59
20971;BME280;10644;48.834;10.088;2023-03-04T12:15:08;97157.56;;;5.37;59.70
20971;BME280;10644;48.834;10.088;2023-03-04T12:17:45;97153.53;;;5.29;59.87
20971;BME280;10644;48.834;10.088;2023-03-04T12:23:12;97137.63;;;5.22;59.43
20971;BME280;10644;48.834;10.088;2023-03-04T12:26:28;97133.47;;;5.20;59.36
20971;BME280;10644;48.834;10.088;2023-03-04T12:32:03;97135.88;;;5.24;59.51
20971;BME280;10644;48.834;10.088;2023-03-04T12:38:12;97122.13;;;5.01;58.94
20971;BME280;10644;48.834;10.088;2023-03-04T12:40:56;97109.53;;;4.96;58.47
20971;BME280;10644;48.834;10.088;2023-03-04T12:43:40;97117.78;;;5.04;58.05
20971;BME280;10644;48.834;10.088;2023-03-04T12:46:10;97108.81;;;4.91;58.28
20971;BME280;10644;48.834;10.088;2023-03-04T12:51:39;97106.91;;;5.01;57.19
20971;BME280;10644;48.834;10.088;2023-03-04T12:54:25;97106.47;;;5.16;56.74
20971;BME280;10644;48.834;10.088;2023-03-04T12:57:01;97097.41;;;5.07;57.14
20971;BME280;10644;48.834;10.088;2023-03-04T12:59:34;97099.84;;;5.12;56.62
20971;BME280;10644;48.834;10.088;2023-03-04T13:05:26;97093.38;;;5.00;57.89
20971;BME280;10644;48.834;10.088;2023-03-04T13:10:35;97091.19;;;5.19;56.57
20971;BME280;10644;48.834;10.088;2023-03-04T13:13:37;97097.34;;;5.10;56.22
20971;BME280;10644;48.834;10.088;2023-03-04T13:18:47;97091.22;;;5.17;56.49
20971;BME280;10644;48.834;10.088;2023-03-04T13:21:23;97100.31;;;5.24;56.01
20971;BME280;10644;48.834;10.088;2023-03-04T13:23:50;97092.63;;;5.29;55.45
20971;BME280;10644;48.834;10.088;2023-03-04T13:26:43;97098.78;;;5.20;56.04
20971;BME280;10644;48.834;10.088;2023-03-04T13:32:34;97091.91;;;5.54;55.31
20971;BME280;10644;48.834;10.088;2023-03-04T13:41:15;97094.66;;;5.15;55.81
20971;BME280;10644;48.834;10.088;2023-03-04T13:49:21;97085.09;;;5.24;55.56
20971;BME280;10644;48.834;10.088;2023-03-04T13:51:50;97080.56;;;5.35;55.54
20971;BME280;10644;48.834;10.088;2023-03-04T13:54:32;97095.63;;;5.41;55.01
20971;BME280;10644;48.834;10.088;2023-03-04T13:57:16;97092.84;;;5.50;55.10
20971;BME280;10644;48.834;10.088;2023-03-04T13:59:48;97087.25;;;5.68;54.71
20971;BME280;10644;48.834;10.088;2023-03-04T14:02:24;97096.56;;;5.68;54.75
20971;BME280;10644;48.834;10.088;2023-03-04T14:07:29;97097.09;;;5.80;53.92
20971;BME280;10644;48.834;10.088;2023-03-04T14:13:01;97091.03;;;5.55;54.95
20971;BME280;10644;48.834;10.088;2023-03-04T14:15:28;97087.56;;;5.27;54.83
20971;BME280;10644;48.834;10.088;2023-03-04T14:18:04;97081.03;;;5.49;54.79
20971;BME280;10644;48.834;10.088;2023-03-04T14:20:53;97086.28;;;5.43;54.51
20971;BME280;10644;48.834;10.088;2023-03-04T14:23:35;97078.59;;;5.45;54.53
20971;BME280;10644;48.834;10.088;2023-03-04T14:26:17;97077.50;;;5.53;54.63
20971;BME280;10644;48.834;10.088;2023-03-04T14:28:51;97079.44;;;5.45;54.63
20971;BME280;10644;48.834;10.088;2023-03-04T14:31:23;97076.13;;;5.43;54.71
20971;BME280;10644;48.834;10.088;2023-03-04T14:33:52;97078.91;;;5.63;54.53
20971;BME280;10644;48.834;10.088;2023-03-04T14:36:25;97073.78;;;5.66;54.32
20971;BME280;10644;48.834;10.088;2023-03-04T14:39:05;97073.66;;;5.69;54.24
20971;BME280;10644;48.834;10.088;2023-03-04T14:41:36;97070.94;;;5.46;54.29
20971;BME280;10644;48.834;10.088;2023-03-04T14:44:28;97063.31;;;5.46;54.39
20971;BME280;10644;48.834;10.088;2023-03-04T14:47:10;97075.81;;;5.23;54.30
20971;BME280;10644;48.834;10.088;2023-03-04T14:50:05;97069.66;;;5.32;54.32
20971;BME280;10644;48.834;10.088;2023-03-04T14:52:43;97064.25;;;5.13;54.61
20971;BME280;10644;48.834;10.088;2023-03-04T14:55:29;97069.22;;;5.18;54.34
20971;BME280;10644;48.834;10.088;2023-03-04T14:58:22;97060.59;;;5.23;54.78
20971;BME280;10644;48.834;10.088;2023-03-04T15:00:48;97054.78;;;5.18;54.20
20971;BME280;10644;48.834;10.088;2023-03-04T15:03:54;97064.06;;;5.19;54.71
20971;BME280;10644;48.834;10.088;2023-03-04T15:06:25;97058.03;;;5.23;54.44
20971;BME280;10644;48.834;10.088;2023-03-04T15:09:20;97063.13;;;5.23;54.49